Time;durP1;ratioP1;P1;durP2;ratioP2;P2;SDS_P1;SDS_P2;PMS_P1;PMS_P2;Temp;Humidity;BMP_temperature;BMP_pressure;BME280_temperature;BME280_humidity;BME280_pressure;Samples;Min_cycle;Max_cycle;Signal;HPM_P1;HPM_P2
2022/04/19 00:00:24;;;;;;;2.70;1.50;;;5.80;64.90;;;;;;617012;233;26532;-64
2022/04/19 00:02:52;;;;;;;1.60;1.50;;;5.80;64.90;;;;;;616629;233;26937;-64
2022/04/19 00:05:19;;;;;;;1.95;1.35;;;5.80;64.90;;;;;;616504;232;26567;-63
2022/04/19 00:07:46;;;;;;;1.45;1.35;;;5.80;65.50;;;;;;616299;232;26944;-64
2022/04/19 00:10:13;;;;;;;1.60;1.50;;;5.70;66.20;;;;;;616321;233;26545;-64
2022/04/19 00:12:42;;;;;;;2.12;1.62;;;5.70;65.40;;;;;;616168;232;26563;-67
2022/04/19 00:15:09;;;;;;;1.92;1.70;;;5.60;66.70;;;;;;615959;233;26549;-66
2022/04/19 00:17:36;;;;;;;2.05;1.52;;;5.60;65.80;;;;;;615797;233;26639;-66
2022/04/19 00:20:04;;;;;;;1.52;1.40;;;5.60;65.80;;;;;;615901;232;26820;-67
2022/04/19 00:22:31;;;;;;;1.52;1.42;;;5.60;66.60;;;;;;616102;233;26611;-66
2022/04/19 00:25:00;;;;;;;1.55;1.35;;;5.50;67.70;;;;;;615910;232;26672;-66
2022/04/19 00:27:27;;;;;;;1.87;1.70;;;5.50;67.00;;;;;;615901;233;26882;-66
2022/04/19 00:29:54;;;;;;;2.65;1.70;;;5.60;66.70;;;;;;615902;233;26614;-66
2022/04/19 00:32:23;;;;;;;1.60;1.50;;;5.70;68.00;;;;;;615938;233;26822;-66
2022/04/19 00:34:49;;;;;;;1.75;1.62;;;5.70;66.60;;;;;;615486;233;26575;-66
2022/04/19 00:37:16;;;;;;;3.40;1.42;;;5.70;67.10;;;;;;615652;234;26591;-66
2022/04/19 00:39:44;;;;;;;1.92;1.70;;;5.80;66.90;;;;;;615622;234;26564;-66
2022/04/19 00:42:11;;;;;;;2.15;1.77;;;5.70;66.80;;;;;;615649;233;26564;-67
2022/04/19 00:44:39;;;;;;;1.50;1.40;;;5.80;67.20;;;;;;615657;233;26525;-67
2022/04/19 00:47:06;;;;;;;1.60;1.50;;;5.80;70.00;;;;;;615574;233;26825;-67
2022/04/19 00:49:33;;;;;;;2.80;1.77;;;5.90;67.70;;;;;;615595;234;26577;-67
2022/04/19 00:52:00;;;;;;;1.70;1.60;;;5.80;68.80;;;;;;615609;233;26561;-68
2022/04/19 00:54:28;;;;;;;1.67;1.58;;;5.70;71.60;;;;;;615610;233;26604;-67
2022/04/19 00:56:56;;;;;;;2.30;1.30;;;5.60;68.40;;;;;;615625;234;26621;-67
2022/04/19 00:59:24;;;;;;;1.40;1.30;;;5.70;68.50;;;;;;615776;233;26806;-67
2022/04/19 01:01:50;;;;;;;1.60;1.50;;;5.60;68.50;;;;;;615642;234;26576;-67
2022/04/19 01:04:17;;;;;;;1.80;1.48;;;5.70;72.60;;;;;;615671;233;27115;-67
2022/04/19 01:06:45;;;;;;;1.70;1.60;;;5.70;69.20;;;;;;615707;233;26622;-68
2022/04/19 01:09:12;;;;;;;1.75;1.50;;;5.70;71.30;;;;;;616344;231;26593;-67
2022/04/19 01:14:13;;;;;;;1.40;1.27;;;5.50;70.10;;;;;;616676;233;27014;-67
2022/04/19 01:16:41;;;;;;;2.40;1.40;;;5.50;71.40;;;;;;616518;233;26579;-67
2022/04/19 01:19:10;;;;;;;1.62;1.42;;;5.30;70.40;;;;;;616327;233;26568;-67
2022/04/19 01:21:44;;;;;;;1.50;1.40;;;5.30;70.40;;;;;;615910;233;26583;-66
2022/04/19 01:24:13;;;;;;;1.55;1.40;;;5.30;70.80;;;;;;616222;233;26773;-66
2022/04/19 01:26:41;;;;;;;1.50;1.40;;;5.20;71.40;;;;;;616169;228;26946;-68
2022/04/19 01:29:07;;;;;;;1.48;1.35;;;5.20;72.10;;;;;;615926;232;26611;-66
2022/04/19 01:31:34;;;;;;;1.77;1.67;;;5.20;72.00;;;;;;615881;232;26602;-66
2022/04/19 01:34:02;;;;;;;1.75;1.45;;;5.10;72.10;;;;;;615864;232;26631;-66
2022/04/19 01:36:30;;;;;;;1.70;1.60;;;5.20;74.60;;;;;;615918;232;26656;-67
2022/04/19 01:38:58;;;;;;;2.47;1.67;;;5.20;73.90;;;;;;615957;232;26842;-66
2022/04/19 01:41:25;;;;;;;1.65;1.40;;;5.20;74.50;;;;;;615946;233;26604;-68
2022/04/19 01:43:53;;;;;;;1.25;1.15;;;5.20;74.10;;;;;;615888;233;26846;-68
2022/04/19 01:46:20;;;;;;;1.55;1.37;;;5.20;73.20;;;;;;615713;233;26604;-69
2022/04/19 01:48:47;;;;;;;1.33;1.33;;;5.20;73.30;;;;;;615647;234;26835;-68
2022/04/19 01:51:15;;;;;;;1.48;1.37;;;5.20;75.10;;;;;;615631;234;26583;-68
2022/04/19 01:53:42;;;;;;;1.40;1.30;;;5.10;75.20;;;;;;615673;233;26800;-68
2022/04/19 01:56:09;;;;;;;3.12;1.52;;;5.20;75.00;;;;;;615518;234;26616;-68
2022/04/19 01:58:37;;;;;;;2.05;1.40;;;5.20;74.00;;;;;;615593;233;26807;-68
2022/04/19 02:01:03;;;;;;;1.30;1.20;;;5.20;76.30;;;;;;615629;233;26574;-67
2022/04/19 02:03:31;;;;;;;1.20;1.20;;;5.20;75.50;;;;;;615632;234;26556;-68
2022/04/19 02:05:59;;;;;;;1.20;1.20;;;5.30;74.20;;;;;;615587;233;26565;-68
2022/04/19 02:08:27;;;;;;;2.03;1.40;;;5.30;76.60;;;;;;615642;234;26553;-68
2022/04/19 02:10:54;;;;;;;1.42;1.35;;;5.30;76.70;;;;;;615687;233;26797;-68
2022/04/19 02:13:21;;;;;;;1.50;1.10;;;5.30;76.60;;;;;;615683;234;26567;-68
2022/04/19 02:15:49;;;;;;;2.40;1.30;;;5.30;76.70;;;;;;615633;234;26805;-68
2022/04/19 02:18:17;;;;;;;4.07;1.50;;;5.40;78.90;;;;;;615609;233;26567;-68
2022/04/19 02:20:45;;;;;;;1.48;1.37;;;5.30;78.70;;;;;;616271;231;27222;-68
2022/04/19 02:23:13;;;;;;;1.58;1.48;;;5.40;77.30;;;;;;617094;232;26613;-68
2022/04/19 02:25:39;;;;;;;1.77;1.30;;;5.30;75.00;;;;;;616606;232;26959;-67
2022/04/19 02:28:07;;;;;;;1.35;1.30;;;5.20;75.20;;;;;;616483;232;26559;-68
2022/04/19 02:30:35;;;;;;;1.20;1.10;;;5.20;78.00;;;;;;616350;232;26555;-67
2022/04/19 02:33:03;;;;;;;1.55;1.42;;;5.20;76.00;;;;;;616242;233;26581;-67
2022/04/19 02:35:31;;;;;;;1.12;1.12;;;5.20;78.30;;;;;;616238;232;26555;-67
2022/04/19 02:37:59;;;;;;;1.65;1.55;;;5.20;77.80;;;;;;616268;232;26596;-67
2022/04/19 02:40:26;;;;;;;1.40;1.30;;;5.20;77.30;;;;;;615920;232;26703;-67
2022/04/19 02:42:54;;;;;;;1.30;1.30;;;5.20;76.90;;;;;;615887;233;26576;-67
2022/04/19 02:45:22;;;;;;;1.75;1.65;;;5.10;78.60;;;;;;615901;232;26937;-66
2022/04/19 02:47:51;;;;;;;1.52;1.42;;;5.20;75.70;;;;;;616248;233;26903;-67
2022/04/19 02:50:16;;;;;;;1.35;1.25;;;5.10;76.00;;;;;;615633;233;26572;-67
2022/04/19 02:52:44;;;;;;;2.12;1.42;;;5.10;77.60;;;;;;616361;233;26796;-67
2022/04/19 02:55:11;;;;;;;0.95;0.95;;;5.00;81.90;;;;;;616227;233;26599;-67
2022/04/19 02:57:39;;;;;;;1.40;1.30;;;5.00;80.90;;;;;;616117;233;26563;-67
2022/04/19 03:00:07;;;;;;;1.37;1.27;;;5.00;81.00;;;;;;616028;234;26537;-67
2022/04/19 03:02:34;;;;;;;1.33;1.30;;;4.90;77.80;;;;;;616035;234;26529;-67
2022/04/19 03:05:02;;;;;;;1.77;1.17;;;4.90;76.70;;;;;;615985;234;26517;-67
2022/04/19 03:07:29;;;;;;;1.98;1.30;;;4.90;76.60;;;;;;616019;233;26566;-66
2022/04/19 03:09:57;;;;;;;1.85;1.35;;;4.80;78.70;;;;;;615849;234;26918;-66
2022/04/19 03:12:24;;;;;;;1.40;1.40;;;4.80;82.30;;;;;;615646;234;26563;-66
2022/04/19 03:14:51;;;;;;;1.15;1.15;;;4.70;81.20;;;;;;615575;233;26808;-66
2022/04/19 03:17:19;;;;;;;1.48;1.37;;;4.70;80.50;;;;;;615651;234;26589;-66
2022/04/19 03:19:47;;;;;;;1.42;1.33;;;4.60;80.70;;;;;;615609;234;26618;-66
2022/04/19 03:22:14;;;;;;;1.20;1.20;;;4.60;80.60;;;;;;615642;234;26633;-66
2022/04/19 03:29:48;;;;;;;1.10;1.10;;;4.50;81.80;;;;;;615627;233;26920;-68
2022/04/19 03:32:16;;;;;;;1.42;1.40;;;4.50;78.50;;;;;;616151;231;27359;-67
2022/04/19 03:34:43;;;;;;;1.12;1.12;;;4.50;78.40;;;;;;617017;232;26834;-67
2022/04/19 03:37:11;;;;;;;1.62;1.30;;;4.50;80.10;;;;;;616599;233;26627;-67
2022/04/19 03:39:39;;;;;;;1.40;1.30;;;4.40;79.20;;;;;;616478;233;26559;-68
2022/04/19 03:42:08;;;;;;;1.50;1.40;;;4.40;79.30;;;;;;616365;233;26576;-67
2022/04/19 03:44:33;;;;;;;1.90;1.42;;;4.30;78.00;;;;;;616097;228;26568;-67
2022/04/19 03:47:07;;;;;;;1.65;1.40;;;4.30;78.90;;;;;;616195;233;26846;-67
2022/04/19 03:49:34;;;;;;;1.45;1.35;;;4.20;78.50;;;;;;616168;232;26584;-67
2022/04/19 03:52:01;;;;;;;1.27;1.17;;;4.20;80.10;;;;;;615960;232;26811;-66
2022/04/19 03:54:34;;;;;;;1.77;1.00;;;4.20;80.50;;;;;;615935;232;26599;-66
2022/04/19 03:56:57;;;;;;;1.65;1.17;;;4.20;80.40;;;;;;615856;232;26874;-67
2022/04/19 03:59:25;;;;;;;1.25;1.17;;;4.20;83.40;;;;;;615980;233;26627;-67
2022/04/19 04:01:52;;;;;;;3.05;1.20;;;4.20;81.40;;;;;;615912;233;26636;-68
2022/04/19 04:04:21;;;;;;;1.20;1.10;;;4.20;80.70;;;;;;615840;233;26648;-68
2022/04/19 04:06:48;;;;;;;1.17;1.17;;;4.20;80.20;;;;;;616186;233;26647;-68
2022/04/19 04:09:15;;;;;;;1.45;1.35;;;4.20;81.10;;;;;;616120;233;26788;-68
2022/04/19 04:11:42;;;;;;;1.90;1.15;;;4.20;78.60;;;;;;616029;234;26546;-68
2022/04/19 04:14:09;;;;;;;1.48;1.30;;;4.10;78.80;;;;;;615977;234;26826;-67
2022/04/19 04:16:37;;;;;;;1.48;1.37;;;4.10;79.90;;;;;;615995;234;26568;-67
2022/04/19 04:19:05;;;;;;;1.05;1.05;;;4.10;82.90;;;;;;616038;233;26563;-67
2022/04/19 04:21:33;;;;;;;1.10;1.10;;;4.10;83.00;;;;;;615809;234;26556;-67
2022/04/19 04:24:00;;;;;;;4.12;1.30;;;4.10;83.20;;;;;;615625;234;27263;-67
2022/04/19 04:26:28;;;;;;;1.80;1.30;;;4.10;83.50;;;;;;615601;233;26571;-67
2022/04/19 04:28:55;;;;;;;1.45;1.35;;;4.10;81.40;;;;;;615674;233;26583;-67
2022/04/19 04:31:23;;;;;;;3.45;1.17;;;4.10;87.80;;;;;;615599;234;26574;-67
2022/04/19 04:33:51;;;;;;;1.40;1.30;;;4.20;88.30;;;;;;615607;234;26552;-67
2022/04/19 04:36:19;;;;;;;1.30;1.20;;;4.10;88.10;;;;;;615636;234;26844;-67
2022/04/19 04:38:45;;;;;;;1.48;1.35;;;4.20;86.90;;;;;;615651;234;26569;-68
2022/04/19 04:41:12;;;;;;;1.25;1.02;;;4.20;87.50;;;;;;615706;234;26852;-67
2022/04/19 04:43:40;;;;;;;1.05;1.05;;;4.20;81.80;;;;;;616157;227;26567;-67
2022/04/19 04:51:13;;;;;;;1.30;1.20;;;4.20;85.50;;;;;;616553;233;26569;-67
2022/04/19 04:53:40;;;;;;;1.42;1.20;;;4.20;84.00;;;;;;616352;233;26810;-67
2022/04/19 04:56:08;;;;;;;1.17;1.08;;;4.20;82.80;;;;;;616131;233;26586;-67
2022/04/19 04:58:36;;;;;;;1.12;1.02;;;4.20;82.80;;;;;;616229;233;26819;-67
2022/04/19 05:01:04;;;;;;;1.00;1.00;;;4.30;84.20;;;;;;616080;233;26563;-67
2022/04/19 05:03:32;;;;;;;1.20;1.10;;;4.30;86.30;;;;;;615950;232;26599;-66
2022/04/19 05:05:59;;;;;;;1.42;1.33;;;4.30;86.20;;;;;;615868;233;26572;-66
2022/04/19 05:08:26;;;;;;;1.30;1.20;;;4.40;84.90;;;;;;615921;232;26617;-66
2022/04/19 05:10:54;;;;;;;1.10;1.10;;;4.40;86.80;;;;;;615930;232;27247;-67
2022/04/19 05:13:21;;;;;;;1.37;1.30;;;4.50;85.30;;;;;;615924;233;26603;-67
2022/04/19 05:15:48;;;;;;;1.58;1.48;;;4.50;86.30;;;;;;615906;232;26618;-67
2022/04/19 05:18:16;;;;;;;1.40;1.20;;;4.60;83.70;;;;;;615963;233;26629;-67
2022/04/19 05:20:44;;;;;;;1.52;1.42;;;4.70;85.70;;;;;;615768;233;26570;-66
2022/04/19 05:23:11;;;;;;;1.92;1.20;;;4.60;85.60;;;;;;615602;233;27253;-68
2022/04/19 05:25:38;;;;;;;1.40;1.30;;;4.80;84.70;;;;;;615637;233;26577;-67
2022/04/19 05:28:06;;;;;;;1.20;1.12;;;4.80;84.70;;;;;;615618;234;26847;-67
2022/04/19 05:30:33;;;;;;;1.27;1.27;;;4.90;88.60;;;;;;615620;234;26557;-67
2022/04/19 05:33:00;;;;;;;1.40;1.30;;;5.00;87.70;;;;;;615632;233;26819;-68
2022/04/19 05:35:27;;;;;;;6.05;1.40;;;5.10;87.60;;;;;;615637;234;26578;-68
2022/04/19 05:37:55;;;;;;;1.35;1.25;;;5.10;85.20;;;;;;615630;234;26592;-67
2022/04/19 05:40:23;;;;;;;1.23;1.20;;;5.30;82.90;;;;;;615580;234;26573;-68
2022/04/19 05:42:51;;;;;;;1.17;1.17;;;5.30;84.90;;;;;;615655;233;26602;-67
2022/04/19 05:45:19;;;;;;;1.30;1.30;;;5.30;84.90;;;;;;615590;233;26584;-67
2022/04/19 05:47:46;;;;;;;1.50;1.37;;;5.40;86.20;;;;;;615649;233;26587;-67
2022/04/19 05:50:14;;;;;;;1.40;1.30;;;5.60;85.20;;;;;;615650;233;26849;-67
2022/04/19 05:52:41;;;;;;;1.65;1.55;;;5.60;85.20;;;;;;615692;228;26807;-67
2022/04/19 05:55:09;;;;;;;2.20;1.30;;;5.70;88.40;;;;;;615962;231;26582;-67
2022/04/19 05:57:36;;;;;;;1.02;1.02;;;5.80;81.60;;;;;;617125;232;26596;-67
2022/04/19 06:00:04;;;;;;;1.30;1.20;;;5.80;86.00;;;;;;616768;232;26626;-67
2022/04/19 06:05:05;;;;;;;4.12;1.20;;;5.90;86.70;;;;;;616362;232;26552;-67
2022/04/19 06:07:32;;;;;;;1.00;1.00;;;6.00;87.20;;;;;;616206;233;26567;-67
2022/04/19 06:10:01;;;;;;;1.12;1.12;;;6.40;84.80;;;;;;616279;232;26557;-67
2022/04/19 06:12:29;;;;;;;1.30;1.17;;;6.50;86.80;;;;;;616194;233;26561;-67
2022/04/19 06:14:55;;;;;;;2.17;1.33;;;6.50;86.00;;;;;;615897;232;26863;-66
2022/04/19 06:17:24;;;;;;;1.00;1.00;;;6.60;82.80;;;;;;615871;233;26639;-67
2022/04/19 06:19:50;;;;;;;1.45;1.20;;;6.60;86.20;;;;;;615908;233;26845;-67
2022/04/19 06:22:17;;;;;;;2.37;1.17;;;6.70;82.30;;;;;;615927;233;26579;-67
2022/04/19 06:24:44;;;;;;;1.30;1.20;;;6.80;85.50;;;;;;615879;233;26634;-67
2022/04/19 06:27:12;;;;;;;1.48;1.35;;;7.10;80.70;;;;;;615960;233;26633;-66
2022/04/19 06:29:39;;;;;;;1.23;1.23;;;7.10;80.80;;;;;;604529;233;26659;-66
2022/04/19 06:32:07;;;;;;;2.28;1.30;;;7.20;81.50;;;;;;615749;233;26560;-66
2022/04/19 06:34:35;;;;;;;1.60;1.50;;;7.30;82.40;;;;;;615648;234;26568;-67
2022/04/19 06:37:03;;;;;;;1.10;1.10;;;7.40;80.70;;;;;;615603;234;26616;-67
2022/04/19 06:39:31;;;;;;;1.45;1.37;;;7.40;80.10;;;;;;615599;233;26821;-66
2022/04/19 06:41:58;;;;;;;1.30;1.20;;;7.40;77.10;;;;;;615596;234;26814;-67
2022/04/19 06:44:25;;;;;;;0.98;0.98;;;7.60;80.20;;;;;;615635;234;26553;-67
2022/04/19 06:46:52;;;;;;;1.40;1.30;;;7.70;83.60;;;;;;615643;234;26547;-67
2022/04/19 06:49:20;;;;;;;1.20;1.10;;;7.80;77.20;;;;;;615582;233;26580;-67
2022/04/19 06:51:49;;;;;;;1.50;1.40;;;7.80;77.50;;;;;;615638;234;26595;-67
2022/04/19 06:54:16;;;;;;;1.20;1.12;;;7.90;76.40;;;;;;615501;234;26810;-67
2022/04/19 06:56:45;;;;;;;1.23;1.10;;;7.90;76.70;;;;;;615902;233;26808;-67
2022/04/19 06:59:10;;;;;;;1.30;1.20;;;8.00;77.10;;;;;;615543;234;26559;-67
2022/04/19 07:01:39;;;;;;;1.10;1.10;;;8.00;80.90;;;;;;615649;233;26803;-67
2022/04/19 07:04:06;;;;;;;1.40;1.30;;;8.10;78.10;;;;;;615613;232;26590;-66
2022/04/19 07:06:33;;;;;;;1.35;1.25;;;8.30;79.80;;;;;;615834;231;26605;-67
2022/04/19 07:09:01;;;;;;;1.30;1.20;;;8.30;79.80;;;;;;617209;232;26902;-66
2022/04/19 07:11:28;;;;;;;1.30;1.20;;;8.50;81.60;;;;;;616760;232;26620;-66
2022/04/19 07:13:55;;;;;;;1.17;1.12;;;8.60;77.10;;;;;;616540;232;26821;-66
2022/04/19 07:16:22;;;;;;;1.10;1.10;;;8.60;71.20;;;;;;616350;232;26596;-67
2022/04/19 07:18:49;;;;;;;3.20;1.20;;;8.80;73.60;;;;;;616228;232;26559;-66
2022/04/19 07:28:56;;;;;;;2.40;1.23;;;9.00;71.90;;;;;;615941;232;26616;-67
2022/04/19 07:31:25;;;;;;;1.20;1.10;;;9.10;73.30;;;;;;615903;233;26622;-68
2022/04/19 07:33:51;;;;;;;3.03;1.27;;;9.10;72.40;;;;;;615887;233;26957;-66
2022/04/19 07:36:19;;;;;;;3.80;1.20;;;9.20;68.60;;;;;;615922;233;26648;-67
2022/04/19 07:38:46;;;;;;;1.17;1.17;;;9.30;63.80;;;;;;615910;233;26853;-67
2022/04/19 07:41:13;;;;;;;1.55;1.45;;;9.30;64.90;;;;;;615801;233;26625;-67
2022/04/19 07:43:43;;;;;;;4.10;1.60;;;9.50;61.70;;;;;;615753;233;26561;-69
2022/04/19 07:46:10;;;;;;;3.37;1.60;;;9.50;62.00;;;;;;615436;234;26582;-66
2022/04/19 07:48:36;;;;;;;6.18;1.40;;;9.50;62.20;;;;;;615576;234;26564;-66
2022/04/19 07:51:05;;;;;;;1.67;1.58;;;9.60;66.00;;;;;;615674;234;26560;-66
2022/04/19 07:53:32;;;;;;;1.67;1.40;;;9.70;61.00;;;;;;615981;234;26550;-66
2022/04/19 07:55:59;;;;;;;3.10;1.55;;;9.60;60.70;;;;;;615886;234;26576;-66
2022/04/19 07:58:27;;;;;;;1.60;1.50;;;9.80;66.00;;;;;;615642;233;26561;-66
2022/04/19 08:00:54;;;;;;;4.20;1.45;;;9.80;63.00;;;;;;615662;233;26798;-67
2022/04/19 08:03:21;;;;;;;3.78;1.50;;;9.90;61.30;;;;;;615660;228;26564;-67
2022/04/19 08:05:50;;;;;;;2.00;1.40;;;9.90;61.60;;;;;;615609;233;27114;-66
2022/04/19 08:08:17;;;;;;;1.40;1.30;;;9.90;61.80;;;;;;615510;233;26558;-65
2022/04/19 08:10:44;;;;;;;3.87;2.10;;;10.00;59.30;;;;;;615491;234;26550;-66
2022/04/19 08:13:11;;;;;;;1.45;1.35;;;9.90;59.90;;;;;;615576;233;26567;-66
2022/04/19 08:15:38;;;;;;;1.87;1.52;;;9.90;63.70;;;;;;615577;234;26569;-66
2022/04/19 08:18:06;;;;;;;1.70;1.42;;;10.00;59.90;;;;;;615725;231;26792;-66
2022/04/19 08:20:33;;;;;;;2.45;1.83;;;10.20;62.90;;;;;;617250;232;26624;-66
2022/04/19 08:23:01;;;;;;;1.87;1.70;;;10.40;63.40;;;;;;616697;227;26587;-66
2022/04/19 08:25:31;;;;;;;4.80;1.87;;;10.40;59.90;;;;;;616456;233;26566;-67
2022/04/19 08:27:57;;;;;;;5.60;1.58;;;10.50;61.90;;;;;;615672;230;26608;-67
2022/04/19 08:30:25;;;;;;;5.10;1.80;;;10.50;60.30;;;;;;618321;231;26598;-67
2022/04/19 08:32:53;;;;;;;3.55;1.27;;;10.40;59.90;;;;;;615795;231;26662;-68
2022/04/19 08:35:20;;;;;;;2.80;1.45;;;10.50;59.20;;;;;;620219;231;26607;-68
2022/04/19 08:37:49;;;;;;;3.80;1.60;;;10.60;59.10;;;;;;612768;235;26584;-67
2022/04/19 08:40:16;;;;;;;3.83;1.52;;;10.70;57.20;;;;;;617482;231;26547;-69
2022/04/19 08:42:43;;;;;;;3.97;1.80;;;10.70;57.60;;;;;;617342;231;27198;-68
2022/04/19 08:45:10;;;;;;;1.77;1.20;;;10.80;55.80;;;;;;617750;231;26568;-68
2022/04/19 08:47:37;;;;;;;3.25;1.40;;;10.80;58.60;;;;;;615865;233;26973;-68
2022/04/19 08:50:05;;;;;;;3.17;1.60;;;10.90;57.60;;;;;;614246;233;26608;-67
2022/04/19 08:52:32;;;;;;;3.10;1.35;;;11.00;57.60;;;;;;614802;232;26573;-66
2022/04/19 08:57:33;;;;;;;3.17;1.52;;;11.00;56.10;;;;;;618847;231;26859;-68
2022/04/19 09:00:00;;;;;;;1.50;1.20;;;11.20;55.10;;;;;;612378;235;26608;-68
2022/04/19 09:02:28;;;;;;;4.40;1.60;;;11.20;56.20;;;;;;614455;233;26814;-68
2022/04/19 09:04:55;;;;;;;11.82;2.10;;;11.30;55.10;;;;;;615571;233;26576;-67
2022/04/19 09:07:23;;;;;;;49.22;8.55;;;11.40;56.80;;;;;;617049;231;26646;-69
2022/04/19 09:09:57;;;;;;;356.55;40.63;;;11.50;56.60;;;;;;614994;231;26607;-69
2022/04/19 09:12:24;;;;;;;384.75;38.45;;;11.40;56.30;;;;;;616706;231;26858;-69
2022/04/19 09:14:55;;;;;;;70.37;16.55;;;11.50;57.10;;;;;;614886;228;26585;-67
2022/04/19 09:17:40;;;;;;;115.12;21.55;;;11.50;56.70;;;;;;623336;229;27324;-68
2022/04/19 09:20:10;;;;;;;36.03;8.15;;;11.60;57.70;;;;;;612391;232;26615;-67
2022/04/19 09:22:37;;;;;;;24.90;7.20;;;11.50;57.50;;;;;;614950;233;26839;-69
2022/04/19 09:25:16;;;;;;;64.32;16.60;;;11.50;58.40;;;;;;613860;234;26549;-68
2022/04/19 09:27:43;;;;;;;40.80;12.23;;;11.50;56.30;;;;;;615804;234;26595;-69
2022/04/19 09:30:18;;;;;;;18.70;6.03;;;11.60;57.80;;;;;;616384;231;26868;-69
2022/04/19 09:32:56;;;;;;;29.15;8.70;;;11.70;59.40;;;;;;617290;233;26559;-69
2022/04/19 09:35:23;;;;;;;3.00;1.75;;;11.80;54.50;;;;;;616842;233;26571;-68
2022/04/19 09:37:50;;;;;;;8.05;2.33;;;11.80;56.30;;;;;;616047;233;26931;-67
2022/04/19 09:40:17;;;;;;;9.70;2.90;;;11.90;58.10;;;;;;616142;233;26562;-67
2022/04/19 09:42:45;;;;;;;3.33;2.12;;;12.00;54.60;;;;;;615358;233;26823;-69
2022/04/19 09:45:13;;;;;;;5.72;2.17;;;12.00;56.10;;;;;;616164;233;26556;-68
2022/04/19 09:47:39;;;;;;;4.20;1.85;;;12.10;54.40;;;;;;616008;233;26844;-70
2022/04/19 09:50:07;;;;;;;2.87;1.60;;;12.00;53.20;;;;;;615355;230;26599;-71
2022/04/19 09:52:43;;;;;;;1.67;1.48;;;12.00;57.70;;;;;;615213;230;26575;-69
2022/04/19 09:55:07;;;;;;;10.55;2.08;;;12.10;55.50;;;;;;613442;231;26587;-72
2022/04/19 09:57:36;;;;;;;4.62;2.22;;;12.10;54.40;;;;;;613987;230;26587;-71
2022/04/19 10:00:05;;;;;;;8.48;2.20;;;12.10;54.30;;;;;;615275;233;26817;-72
2022/04/19 10:10:11;;;;;;;7.15;1.80;;;12.30;53.40;;;;;;623196;230;26537;-72
2022/04/19 10:12:39;;;;;;;10.30;3.30;;;12.50;56.20;;;;;;612552;231;26685;-72
2022/04/19 10:15:07;;;;;;;22.33;6.10;;;12.80;54.60;;;;;;614304;233;26565;-72
2022/04/19 10:17:35;;;;;;;7.57;2.03;;;12.80;54.70;;;;;;614302;231;26565;-72
2022/04/19 10:20:04;;;;;;;5.47;1.90;;;13.00;53.20;;;;;;612421;233;26837;-72
2022/04/19 10:22:29;;;;;;;9.25;3.30;;;13.00;52.70;;;;;;612381;228;26564;-72
2022/04/19 10:24:58;;;;;;;4.45;1.75;;;12.80;56.30;;;;;;619787;231;26846;-73
2022/04/19 10:27:30;;;;;;;6.75;1.50;;;12.80;54.10;;;;;;619821;231;26659;-76
2022/04/19 10:29:57;;;;;;;6.37;2.30;;;12.80;53.30;;;;;;615601;233;26568;-74
2022/04/19 10:32:33;;;;;;;8.13;1.98;;;12.70;56.40;;;;;;613671;234;26838;-75
2022/04/19 10:35:00;;;;;;;6.93;3.00;;;12.80;54.60;;;;;;619594;231;26624;-75
2022/04/19 10:37:27;;;;;;;4.82;1.80;;;13.00;56.20;;;;;;613127;233;26602;-75
2022/04/19 10:40:07;;;;;;;5.60;2.08;;;13.00;55.70;;;;;;614160;234;26895;-75
2022/04/19 10:42:34;;;;;;;6.10;2.00;;;13.10;55.10;;;;;;614493;229;26626;-75
2022/04/19 10:45:28;;;;;;;5.35;2.60;;;13.30;53.80;;;;;;613454;234;27073;-75
2022/04/19 10:48:10;;;;;;;2.10;1.90;;;13.50;53.60;;;;;;613367;232;26560;-74
2022/04/19 10:50:39;;;;;;;5.05;2.22;;;13.70;51.80;;;;;;613590;234;26531;-74
2022/04/19 10:53:04;;;;;;;3.97;2.37;;;13.90;52.50;;;;;;613361;233;26823;-74
2022/04/19 10:55:31;;;;;;;3.95;2.45;;;14.10;56.30;;;;;;613346;235;26586;-75
2022/04/19 10:58:16;;;;;;;5.00;2.33;;;14.60;52.60;;;;;;613389;234;26842;-75
2022/04/19 11:00:45;;;;;;;4.28;2.22;;;14.80;51.50;;;;;;613029;234;26542;-76
2022/04/19 11:03:11;;;;;;;3.35;2.40;;;15.10;54.60;;;;;;613050;234;26533;-74
2022/04/19 11:05:41;;;;;;;4.15;2.70;;;15.10;53.70;;;;;;612665;234;26559;-75
2022/04/19 11:08:18;;;;;;;3.03;1.95;;;15.10;52.80;;;;;;612773;233;26601;-75
2022/04/19 11:10:46;;;;;;;7.55;2.28;;;15.00;50.10;;;;;;612791;233;26819;-74
2022/04/19 11:13:13;;;;;;;4.15;2.35;;;15.00;50.00;;;;;;612737;235;26585;-75
2022/04/19 11:15:42;;;;;;;4.62;2.25;;;15.10;53.40;;;;;;612816;233;26897;-75
2022/04/19 11:18:22;;;;;;;4.30;2.40;;;15.00;52.90;;;;;;612673;234;26604;-75
2022/04/19 11:20:46;;;;;;;6.12;2.42;;;15.20;51.00;;;;;;612265;235;26656;-75
2022/04/19 11:23:17;;;;;;;3.67;2.47;;;15.20;50.40;;;;;;612545;233;26875;-75
2022/04/19 11:25:45;;;;;;;4.25;2.42;;;15.00;52.20;;;;;;612431;235;26615;-75
2022/04/19 11:28:19;;;;;;;4.80;2.22;;;15.00;52.20;;;;;;612377;235;26847;-76
2022/04/19 11:31:08;;;;;;;6.35;2.67;;;15.20;52.00;;;;;;612506;233;26615;-76
2022/04/19 11:33:36;;;;;;;5.18;2.65;;;15.60;52.30;;;;;;611880;234;26643;-76
2022/04/19 11:36:05;;;;;;;4.70;1.95;;;15.30;50.40;;;;;;612400;233;26616;-76
2022/04/19 11:38:32;;;;;;;4.60;2.50;;;15.20;49.90;;;;;;612413;233;26634;-75
2022/04/19 11:48:45;;;;;;;3.75;1.90;;;15.10;49.50;;;;;;612759;235;26602;-76
2022/04/19 11:51:10;;;;;;;3.87;1.98;;;15.10;49.50;;;;;;612446;233;26944;-75
2022/04/19 11:53:36;;;;;;;2.28;1.90;;;15.00;49.80;;;;;;613206;232;26596;-76
2022/04/19 11:56:03;;;;;;;2.12;1.87;;;15.10;52.10;;;;;;613831;232;26565;-76
2022/04/19 11:58:31;;;;;;;2.95;1.77;;;15.00;54.30;;;;;;613473;233;26558;-75
2022/04/19 12:00:58;;;;;;;2.17;1.73;;;15.00;50.90;;;;;;613333;234;26562;-75
2022/04/19 12:03:26;;;;;;;2.10;1.67;;;15.10;52.60;;;;;;613244;234;26622;-75
2022/04/19 12:05:55;;;;;;;3.53;2.00;;;15.30;54.10;;;;;;613036;233;26581;-75
2022/04/19 12:08:28;;;;;;;2.80;1.70;;;15.30;54.10;;;;;;613222;233;26857;-75
2022/04/19 12:10:55;;;;;;;1.62;1.52;;;15.20;51.10;;;;;;613112;234;26574;-76
2022/04/19 12:13:23;;;;;;;2.78;1.50;;;15.10;52.00;;;;;;612813;233;26550;-77
2022/04/19 12:15:51;;;;;;;3.00;1.58;;;14.80;50.20;;;;;;612756;235;26560;-77
2022/04/19 12:18:28;;;;;;;2.95;1.50;;;15.10;50.10;;;;;;612770;233;26565;-76
2022/04/19 12:20:56;;;;;;;3.47;1.85;;;15.00;50.40;;;;;;612781;233;26566;-76
2022/04/19 12:23:24;;;;;;;2.25;1.65;;;15.10;53.20;;;;;;612726;233;26555;-76
2022/04/19 12:25:58;;;;;;;5.32;1.83;;;15.00;50.10;;;;;;612767;233;26565;-77
2022/04/19 12:28:38;;;;;;;2.53;1.60;;;15.00;50.00;;;;;;612528;234;26848;-77
2022/04/19 12:31:04;;;;;;;3.87;1.70;;;15.00;50.30;;;;;;612453;233;26611;-77
2022/04/19 12:33:31;;;;;;;1.52;1.42;;;14.60;50.70;;;;;;612401;235;27352;-77
2022/04/19 12:35:59;;;;;;;2.10;1.58;;;14.30;51.90;;;;;;612504;235;26657;-77
2022/04/19 12:38:29;;;;;;;1.75;1.65;;;14.30;51.10;;;;;;612518;235;26618;-77
2022/04/19 12:40:56;;;;;;;3.35;1.87;;;14.20;52.40;;;;;;612456;233;26857;-77
2022/04/19 12:43:23;;;;;;;1.58;1.48;;;14.40;51.90;;;;;;612493;233;26831;-77
2022/04/19 12:45:50;;;;;;;2.35;1.70;;;14.30;50.80;;;;;;609904;235;26625;-77
2022/04/19 12:48:21;;;;;;;1.65;1.40;;;14.40;51.80;;;;;;612457;235;26592;-76
2022/04/19 12:50:48;;;;;;;2.35;1.42;;;14.40;51.80;;;;;;612260;234;26615;-76
2022/04/19 12:53:22;;;;;;;2.12;1.73;;;14.90;51.80;;;;;;611102;235;27292;-76
2022/04/19 13:14:27;;;;;;;2.65;1.77;;;16.00;50.50;;;;;;613720;231;26562;-72
2022/04/19 13:16:54;;;;;;;3.65;1.92;;;16.10;52.30;;;;;;619769;231;26622;-72
2022/04/19 13:19:21;;;;;;;1.87;1.58;;;16.40;50.90;;;;;;612908;233;26623;-71
2022/04/19 13:21:48;;;;;;;1.48;1.37;;;16.50;52.90;;;;;;613908;233;26825;-71
2022/04/19 13:24:16;;;;;;;3.22;1.80;;;16.80;50.50;;;;;;615098;233;26632;-70
2022/04/19 13:26:44;;;;;;;1.60;1.50;;;17.20;49.40;;;;;;620047;231;26841;-71
2022/04/19 13:29:11;;;;;;;1.37;1.27;;;17.20;49.60;;;;;;613640;233;26589;-70
2022/04/19 13:31:38;;;;;;;2.95;1.60;;;17.50;49.90;;;;;;618588;231;26837;-71
2022/04/19 13:34:05;;;;;;;1.55;1.45;;;17.90;48.00;;;;;;621369;231;26546;-71
2022/04/19 13:36:32;;;;;;;2.03;1.80;;;17.80;51.60;;;;;;613807;231;27284;-72
2022/04/19 13:38:59;;;;;;;1.87;1.55;;;17.50;47.60;;;;;;616258;230;26562;-70
2022/04/19 13:41:27;;;;;;;2.65;1.67;;;17.20;50.00;;;;;;618140;231;26822;-71
2022/04/19 13:43:54;;;;;;;1.65;1.20;;;17.40;49.80;;;;;;621614;231;26586;-72
2022/04/19 13:46:21;;;;;;;1.35;1.25;;;18.10;47.30;;;;;;619894;230;26657;-71
2022/04/19 13:48:49;;;;;;;1.45;1.35;;;19.80;49.60;;;;;;612471;233;26630;-71
2022/04/19 13:51:17;;;;;;;2.17;1.40;;;20.90;49.80;;;;;;613971;232;26577;-71
2022/04/19 13:53:45;;;;;;;3.28;1.45;;;21.70;44.00;;;;;;615606;233;26563;-71
2022/04/19 13:56:12;;;;;;;2.45;1.65;;;21.70;44.00;;;;;;620091;231;26650;-71